sensor_id;sensor_type;location;lat;lon;timestamp;temperature;humidity
31207;DHT22;17834;52.992;8.856;2023-07-02T00:00:51;14.60;99.90
31207;DHT22;17834;52.992;8.856;2023-07-02T00:03:17;14.70;99.90
31207;DHT22;17834;52.992;8.856;2023-07-02T00:05:47;14.60;99.90
31207;DHT22;17834;52.992;8.856;2023-07-02T00:08:15;14.70;99.90
31207;DHT22;17834;52.992;8.856;2023-07-02T00:10:41;14.70;99.90
31207;DHT22;17834;52.992;8.856;2023-07-02T00:13:06;14.70;99.90
31207;DHT22;17834;52.992;8.856;2023-07-02T00:15:32;14.80;99.90
31207;DHT22;17834;52.992;8.856;2023-07-02T00:17:57;14.80;99.90
31207;DHT22;17834;52.992;8.856;2023-07-02T00:20:23;14.80;99.90
31207;DHT22;17834;52.992;8.856;2023-07-02T00:22:49;14.80;99.90
31207;DHT22;17834;52.992;8.856;2023-07-02T00:25:15;14.80;99.90
31207;DHT22;17834;52.992;8.856;2023-07-02T00:27:41;14.80;99.90
31207;DHT22;17834;52.992;8.856;2023-07-02T00:30:07;14.80;99.90
31207;DHT22;17834;52.992;8.856;2023-07-02T00:32:32;14.90;99.90
31207;DHT22;17834;52.992;8.856;2023-07-02T00:34:58;14.90;99.90
31207;DHT22;17834;52.992;8.856;2023-07-02T00:37:24;14.90;99.90
31207;DHT22;17834;52.992;8.856;2023-07-02T00:39:49;14.90;99.90
31207;DHT22;17834;52.992;8.856;2023-07-02T00:42:15;14.90;99.90
31207;DHT22;17834;52.992;8.856;2023-07-02T00:44:41;14.90;99.90
31207;DHT22;17834;52.992;8.856;2023-07-02T00:47:11;14.90;99.90
31207;DHT22;17834;52.992;8.856;2023-07-02T00:49:37;15.00;99.90
31207;DHT22;17834;52.992;8.856;2023-07-02T00:52:03;15.00;99.90
31207;DHT22;17834;52.992;8.856;2023-07-02T00:54:29;15.00;99.90
31207;DHT22;17834;52.992;8.856;2023-07-02T00:56:55;15.00;99.90
31207;DHT22;17834;52.992;8.856;2023-07-02T00:59:20;15.00;99.90
31207;DHT22;17834;52.992;8.856;2023-07-02T01:01:46;15.00;99.90
31207;DHT22;17834;52.992;8.856;2023-07-02T01:04:17;15.00;99.90
31207;DHT22;17834;52.992;8.856;2023-07-02T01:06:43;15.00;99.90
31207;DHT22;17834;52.992;8.856;2023-07-02T01:09:09;15.00;99.90
31207;DHT22;17834;52.992;8.856;2023-07-02T01:11:45;15.10;99.90
31207;DHT22;17834;52.992;8.856;2023-07-02T01:16:57;15.10;99.90
31207;DHT22;17834;52.992;8.856;2023-07-02T01:19:50;15.20;99.90
31207;DHT22;17834;52.992;8.856;2023-07-02T01:22:21;15.20;99.90
31207;DHT22;17834;52.992;8.856;2023-07-02T01:24:48;15.20;99.90
31207;DHT22;17834;52.992;8.856;2023-07-02T01:27:14;15.20;99.90
31207;DHT22;17834;52.992;8.856;2023-07-02T01:29:40;15.20;99.90
31207;DHT22;17834;52.992;8.856;2023-07-02T01:32:06;15.20;99.90
31207;DHT22;17834;52.992;8.856;2023-07-02T01:34:31;15.20;99.90
31207;DHT22;17834;52.992;8.856;2023-07-02T01:36:57;15.20;99.90
31207;DHT22;17834;52.992;8.856;2023-07-02T01:39:22;15.20;99.90
31207;DHT22;17834;52.992;8.856;2023-07-02T01:41:52;15.30;99.90
31207;DHT22;17834;52.992;8.856;2023-07-02T01:44:19;15.30;99.90
31207;DHT22;17834;52.992;8.856;2023-07-02T01:46:45;15.30;99.90
31207;DHT22;17834;52.992;8.856;2023-07-02T01:49:17;15.30;99.90
31207;DHT22;17834;52.992;8.856;2023-07-02T01:51:50;15.30;99.90
31207;DHT22;17834;52.992;8.856;2023-07-02T01:54:17;15.30;99.90
31207;DHT22;17834;52.992;8.856;2023-07-02T01:56:42;15.30;99.90
31207;DHT22;17834;52.992;8.856;2023-07-02T01:59:08;15.30;99.90
31207;DHT22;17834;52.992;8.856;2023-07-02T02:01:34;15.20;99.90
31207;DHT22;17834;52.992;8.856;2023-07-02T02:03:59;15.20;99.90
31207;DHT22;17834;52.992;8.856;2023-07-02T02:06:25;15.20;99.90
31207;DHT22;17834;52.992;8.856;2023-07-02T02:08:50;15.20;99.90
31207;DHT22;17834;52.992;8.856;2023-07-02T02:11:16;15.20;99.90
31207;DHT22;17834;52.992;8.856;2023-07-02T02:13:41;15.10;99.90
31207;DHT22;17834;52.992;8.856;2023-07-02T02:16:07;15.10;99.90
31207;DHT22;17834;52.992;8.856;2023-07-02T02:18:32;15.00;99.90
31207;DHT22;17834;52.992;8.856;2023-07-02T02:20:58;15.00;99.90
31207;DHT22;17834;52.992;8.856;2023-07-02T02:23:23;14.90;99.90
31207;DHT22;17834;52.992;8.856;2023-07-02T02:25:49;14.80;99.90
31207;DHT22;17834;52.992;8.856;2023-07-02T02:28:14;14.70;99.90
31207;DHT22;17834;52.992;8.856;2023-07-02T02:30:40;14.60;99.90
31207;DHT22;17834;52.992;8.856;2023-07-02T02:33:05;14.50;99.90
31207;DHT22;17834;52.992;8.856;2023-07-02T02:35:31;14.50;99.90
31207;DHT22;17834;52.992;8.856;2023-07-02T02:37:56;14.40;99.90
31207;DHT22;17834;52.992;8.856;2023-07-02T02:40:22;14.50;99.90
31207;DHT22;17834;52.992;8.856;2023-07-02T02:42:47;14.50;99.90
31207;DHT22;17834;52.992;8.856;2023-07-02T02:45:13;14.60;99.90
31207;DHT22;17834;52.992;8.856;2023-07-02T02:47:38;14.50;99.90
31207;DHT22;17834;52.992;8.856;2023-07-02T02:50:06;14.60;99.90
31207;DHT22;17834;52.992;8.856;2023-07-02T02:52:31;14.50;99.90
31207;DHT22;17834;52.992;8.856;2023-07-02T02:54:57;14.50;99.90
31207;DHT22;17834;52.992;8.856;2023-07-02T02:57:22;14.50;99.90
31207;DHT22;17834;52.992;8.856;2023-07-02T02:59:48;14.50;99.90
31207;DHT22;17834;52.992;8.856;2023-07-02T03:02:13;14.50;99.90
31207;DHT22;17834;52.992;8.856;2023-07-02T03:04:39;14.50;99.90
31207;DHT22;17834;52.992;8.856;2023-07-02T03:07:05;14.50;99.90
31207;DHT22;17834;52.992;8.856;2023-07-02T03:09:32;14.60;99.90
31207;DHT22;17834;52.992;8.856;2023-07-02T03:11:57;14.60;99.90
31207;DHT22;17834;52.992;8.856;2023-07-02T03:14:23;14.70;99.90
31207;DHT22;17834;52.992;8.856;2023-07-02T03:16:49;14.60;99.90
31207;DHT22;17834;52.992;8.856;2023-07-02T03:19:14;14.70;99.90
31207;DHT22;17834;52.992;8.856;2023-07-02T03:21:42;14.70;99.90
31207;DHT22;17834;52.992;8.856;2023-07-02T03:24:08;14.70;99.90
31207;DHT22;17834;52.992;8.856;2023-07-02T03:26:35;14.80;99.90
31207;DHT22;17834;52.992;8.856;2023-07-02T03:29:01;14.70;99.90
31207;DHT22;17834;52.992;8.856;2023-07-02T03:31:26;14.70;99.90
31207;DHT22;17834;52.992;8.856;2023-07-02T03:33:52;14.70;99.90
31207;DHT22;17834;52.992;8.856;2023-07-02T03:36:17;14.80;99.90
31207;DHT22;17834;52.992;8.856;2023-07-02T03:38:43;14.80;99.90
31207;DHT22;17834;52.992;8.856;2023-07-02T03:41:08;14.80;99.90
31207;DHT22;17834;52.992;8.856;2023-07-02T03:43:34;14.80;99.90
31207;DHT22;17834;52.992;8.856;2023-07-02T03:45:59;14.90;99.90
31207;DHT22;17834;52.992;8.856;2023-07-02T03:48:25;14.80;99.90
31207;DHT22;17834;52.992;8.856;2023-07-02T03:50:50;14.70;99.90
31207;DHT22;17834;52.992;8.856;2023-07-02T03:53:15;14.70;99.90
31207;DHT22;17834;52.992;8.856;2023-07-02T03:55:41;14.70;99.90
31207;DHT22;17834;52.992;8.856;2023-07-02T03:58:07;14.60;99.90
31207;DHT22;17834;52.992;8.856;2023-07-02T04:00:32;14.60;99.90
31207;DHT22;17834;52.992;8.856;2023-07-02T04:02:58;14.60;99.90
31207;DHT22;17834;52.992;8.856;2023-07-02T04:05:23;14.60;99.90
31207;DHT22;17834;52.992;8.856;2023-07-02T04:07:48;14.60;99.90
31207;DHT22;17834;52.992;8.856;2023-07-02T04:10:14;14.60;99.90
31207;DHT22;17834;52.992;8.856;2023-07-02T04:12:39;14.70;99.90
31207;DHT22;17834;52.992;8.856;2023-07-02T04:15:06;14.80;99.90
31207;DHT22;17834;52.992;8.856;2023-07-02T04:17:31;14.90;99.90
31207;DHT22;17834;52.992;8.856;2023-07-02T04:19:57;15.10;99.90
31207;DHT22;17834;52.992;8.856;2023-07-02T04:22:24;15.10;99.90
31207;DHT22;17834;52.992;8.856;2023-07-02T04:24:50;15.20;99.90
31207;DHT22;17834;52.992;8.856;2023-07-02T04:27:16;15.40;99.90
31207;DHT22;17834;52.992;8.856;2023-07-02T04:29:45;15.60;99.90
31207;DHT22;17834;52.992;8.856;2023-07-02T04:32:10;15.70;99.90
31207;DHT22;17834;52.992;8.856;2023-07-02T04:34:36;16.00;99.90
31207;DHT22;17834;52.992;8.856;2023-07-02T04:37:05;16.30;99.90
31207;DHT22;17834;52.992;8.856;2023-07-02T04:39:30;16.50;99.90
31207;DHT22;17834;52.992;8.856;2023-07-02T04:41:56;16.40;99.90
31207;DHT22;17834;52.992;8.856;2023-07-02T04:44:22;16.40;99.90
31207;DHT22;17834;52.992;8.856;2023-07-02T04:47:00;16.70;99.90
31207;DHT22;17834;52.992;8.856;2023-07-02T04:49:26;17.60;99.90
31207;DHT22;17834;52.992;8.856;2023-07-02T04:51:52;18.60;99.90
31207;DHT22;17834;52.992;8.856;2023-07-02T04:54:22;19.70;99.90
31207;DHT22;17834;52.992;8.856;2023-07-02T04:56:47;20.60;99.90
31207;DHT22;17834;52.992;8.856;2023-07-02T04:59:14;21.40;99.90
31207;DHT22;17834;52.992;8.856;2023-07-02T05:01:39;22.20;99.90
31207;DHT22;17834;52.992;8.856;2023-07-02T05:04:05;22.80;99.90
31207;DHT22;17834;52.992;8.856;2023-07-02T05:06:31;23.40;99.00
31207;DHT22;17834;52.992;8.856;2023-07-02T05:08:56;23.00;96.90
31207;DHT22;17834;52.992;8.856;2023-07-02T05:11:22;22.30;97.60
31207;DHT22;17834;52.992;8.856;2023-07-02T05:13:47;21.50;98.70
31207;DHT22;17834;52.992;8.856;2023-07-02T05:16:13;20.80;99.90
31207;DHT22;17834;52.992;8.856;2023-07-02T05:18:39;20.20;99.90
31207;DHT22;17834;52.992;8.856;2023-07-02T05:21:05;19.80;99.90
31207;DHT22;17834;52.992;8.856;2023-07-02T05:23:30;19.30;99.90
31207;DHT22;17834;52.992;8.856;2023-07-02T05:25:55;19.00;99.90
31207;DHT22;17834;52.992;8.856;2023-07-02T05:28:21;19.00;99.90
31207;DHT22;17834;52.992;8.856;2023-07-02T05:30:46;19.10;99.90
31207;DHT22;17834;52.992;8.856;2023-07-02T05:33:12;19.10;99.90
31207;DHT22;17834;52.992;8.856;2023-07-02T05:35:38;18.90;99.90
31207;DHT22;17834;52.992;8.856;2023-07-02T05:38:04;19.10;99.90
31207;DHT22;17834;52.992;8.856;2023-07-02T05:40:29;19.60;99.90
31207;DHT22;17834;52.992;8.856;2023-07-02T05:42:54;19.70;99.90
31207;DHT22;17834;52.992;8.856;2023-07-02T05:45:20;19.60;99.90
31207;DHT22;17834;52.992;8.856;2023-07-02T05:47:45;20.00;99.90
31207;DHT22;17834;52.992;8.856;2023-07-02T05:50:11;21.00;99.90
31207;DHT22;17834;52.992;8.856;2023-07-02T05:52:36;22.40;99.90
31207;DHT22;17834;52.992;8.856;2023-07-02T05:55:02;23.70;95.80
31207;DHT22;17834;52.992;8.856;2023-07-02T05:57:28;25.20;90.30
31207;DHT22;17834;52.992;8.856;2023-07-02T05:59:53;26.00;78.70
31207;DHT22;17834;52.992;8.856;2023-07-02T06:02:19;26.70;73.80
31207;DHT22;17834;52.992;8.856;2023-07-02T06:04:44;27.40;70.40
31207;DHT22;17834;52.992;8.856;2023-07-02T06:07:10;27.70;68.40
31207;DHT22;17834;52.992;8.856;2023-07-02T06:09:35;28.20;64.50
31207;DHT22;17834;52.992;8.856;2023-07-02T06:12:01;28.80;63.00
31207;DHT22;17834;52.992;8.856;2023-07-02T06:14:26;29.50;60.50
31207;DHT22;17834;52.992;8.856;2023-07-02T06:16:52;29.90;56.80
31207;DHT22;17834;52.992;8.856;2023-07-02T06:19:18;30.20;54.50
31207;DHT22;17834;52.992;8.856;2023-07-02T06:21:43;30.30;53.50
31207;DHT22;17834;52.992;8.856;2023-07-02T06:24:09;30.30;53.40
31207;DHT22;17834;52.992;8.856;2023-07-02T06:26:34;30.10;52.00
31207;DHT22;17834;52.992;8.856;2023-07-02T06:29:00;30.20;52.20
31207;DHT22;17834;52.992;8.856;2023-07-02T06:31:26;30.00;51.80
31207;DHT22;17834;52.992;8.856;2023-07-02T06:33:51;29.70;52.30
31207;DHT22;17834;52.992;8.856;2023-07-02T06:36:17;29.50;53.40
31207;DHT22;17834;52.992;8.856;2023-07-02T06:38:43;28.90;52.70
31207;DHT22;17834;52.992;8.856;2023-07-02T06:41:09;28.10;53.20
31207;DHT22;17834;52.992;8.856;2023-07-02T06:43:34;28.60;52.70
31207;DHT22;17834;52.992;8.856;2023-07-02T06:46:00;28.90;52.20
31207;DHT22;17834;52.992;8.856;2023-07-02T06:48:25;29.70;50.90
31207;DHT22;17834;52.992;8.856;2023-07-02T06:50:51;29.80;50.90
31207;DHT22;17834;52.992;8.856;2023-07-02T06:53:16;30.20;50.60
31207;DHT22;17834;52.992;8.856;2023-07-02T06:55:42;29.10;52.20
31207;DHT22;17834;52.992;8.856;2023-07-02T06:58:08;29.70;50.80
31207;DHT22;17834;52.992;8.856;2023-07-02T07:00:34;29.50;51.50
31207;DHT22;17834;52.992;8.856;2023-07-02T07:03:02;28.80;52.30
31207;DHT22;17834;52.992;8.856;2023-07-02T07:05:29;28.20;52.50
31207;DHT22;17834;52.992;8.856;2023-07-02T07:07:54;28.50;52.40
31207;DHT22;17834;52.992;8.856;2023-07-02T07:10:20;29.00;50.80
31207;DHT22;17834;52.992;8.856;2023-07-02T07:12:45;28.80;51.30
31207;DHT22;17834;52.992;8.856;2023-07-02T07:15:11;28.80;51.70
31207;DHT22;17834;52.992;8.856;2023-07-02T07:17:36;29.50;52.20
31207;DHT22;17834;52.992;8.856;2023-07-02T07:20:02;29.60;49.70
31207;DHT22;17834;52.992;8.856;2023-07-02T07:22:30;29.40;48.80
31207;DHT22;17834;52.992;8.856;2023-07-02T07:24:56;28.60;50.10
31207;DHT22;17834;52.992;8.856;2023-07-02T07:27:21;28.20;51.70
31207;DHT22;17834;52.992;8.856;2023-07-02T07:29:47;28.20;50.50
31207;DHT22;17834;52.992;8.856;2023-07-02T07:32:12;28.60;52.40
31207;DHT22;17834;52.992;8.856;2023-07-02T07:34:38;28.50;53.00
31207;DHT22;17834;52.992;8.856;2023-07-02T07:37:03;28.30;51.20
31207;DHT22;17834;52.992;8.856;2023-07-02T07:39:30;27.30;51.30
31207;DHT22;17834;52.992;8.856;2023-07-02T07:41:55;26.50;52.50
31207;DHT22;17834;52.992;8.856;2023-07-02T07:44:21;27.10;52.90
31207;DHT22;17834;52.992;8.856;2023-07-02T07:46:46;27.90;51.50
31207;DHT22;17834;52.992;8.856;2023-07-02T07:49:13;29.50;52.60
31207;DHT22;17834;52.992;8.856;2023-07-02T07:51:39;30.10;50.10
31207;DHT22;17834;52.992;8.856;2023-07-02T07:54:04;29.80;47.30
31207;DHT22;17834;52.992;8.856;2023-07-02T07:56:30;29.70;47.30
31207;DHT22;17834;52.992;8.856;2023-07-02T07:58:55;27.60;48.70
31207;DHT22;17834;52.992;8.856;2023-07-02T08:01:21;26.50;51.30
31207;DHT22;17834;52.992;8.856;2023-07-02T08:03:46;25.00;54.50
31207;DHT22;17834;52.992;8.856;2023-07-02T08:06:12;24.00;55.80
31207;DHT22;17834;52.992;8.856;2023-07-02T08:08:37;23.50;58.30
31207;DHT22;17834;52.992;8.856;2023-07-02T08:11:03;23.10;58.30
31207;DHT22;17834;52.992;8.856;2023-07-02T08:13:28;22.70;59.30
31207;DHT22;17834;52.992;8.856;2023-07-02T08:15:54;22.80;60.10
31207;DHT22;17834;52.992;8.856;2023-07-02T08:18:20;22.20;59.60
31207;DHT22;17834;52.992;8.856;2023-07-02T08:20:45;21.80;60.20
31207;DHT22;17834;52.992;8.856;2023-07-02T08:23:10;21.50;62.40
31207;DHT22;17834;52.992;8.856;2023-07-02T08:25:37;21.10;62.80
31207;DHT22;17834;52.992;8.856;2023-07-02T08:28:02;21.00;64.00
31207;DHT22;17834;52.992;8.856;2023-07-02T08:30:28;20.90;65.10
31207;DHT22;17834;52.992;8.856;2023-07-02T08:32:53;20.90;66.40
31207;DHT22;17834;52.992;8.856;2023-07-02T08:35:20;20.70;67.20
31207;DHT22;17834;52.992;8.856;2023-07-02T08:37:46;21.00;68.30
31207;DHT22;17834;52.992;8.856;2023-07-02T08:40:18;21.00;63.00
31207;DHT22;17834;52.992;8.856;2023-07-02T08:42:47;21.20;64.20
31207;DHT22;17834;52.992;8.856;2023-07-02T08:45:14;21.30;64.50
31207;DHT22;17834;52.992;8.856;2023-07-02T08:47:41;21.10;64.10
31207;DHT22;17834;52.992;8.856;2023-07-02T08:50:06;20.90;65.40
31207;DHT22;17834;52.992;8.856;2023-07-02T08:52:32;20.80;66.20
31207;DHT22;17834;52.992;8.856;2023-07-02T08:54:57;20.90;67.30
31207;DHT22;17834;52.992;8.856;2023-07-02T08:57:23;20.70;65.10
31207;DHT22;17834;52.992;8.856;2023-07-02T08:59:48;20.90;64.80
31207;DHT22;17834;52.992;8.856;2023-07-02T09:02:17;21.30;65.20
31207;DHT22;17834;52.992;8.856;2023-07-02T09:04:42;21.30;64.10
31207;DHT22;17834;52.992;8.856;2023-07-02T09:07:09;21.20;63.90
31207;DHT22;17834;52.992;8.856;2023-07-02T09:09:45;21.10;65.20
31207;DHT22;17834;52.992;8.856;2023-07-02T09:12:27;20.70;65.50
31207;DHT22;17834;52.992;8.856;2023-07-02T09:15:00;20.70;67.60
31207;DHT22;17834;52.992;8.856;2023-07-02T09:17:38;20.30;68.20
31207;DHT22;17834;52.992;8.856;2023-07-02T09:20:05;20.50;69.10
31207;DHT22;17834;52.992;8.856;2023-07-02T09:22:34;20.50;66.80
31207;DHT22;17834;52.992;8.856;2023-07-02T09:25:01;20.60;67.80
31207;DHT22;17834;52.992;8.856;2023-07-02T09:27:40;20.80;68.10
31207;DHT22;17834;52.992;8.856;2023-07-02T09:30:12;21.10;67.50
31207;DHT22;17834;52.992;8.856;2023-07-02T09:32:44;21.30;67.50
31207;DHT22;17834;52.992;8.856;2023-07-02T09:35:11;21.60;69.00
31207;DHT22;17834;52.992;8.856;2023-07-02T09:37:37;21.70;65.80
31207;DHT22;17834;52.992;8.856;2023-07-02T09:40:03;21.60;66.10
31207;DHT22;17834;52.992;8.856;2023-07-02T09:42:34;21.50;66.80
31207;DHT22;17834;52.992;8.856;2023-07-02T09:45:02;21.30;66.50
31207;DHT22;17834;52.992;8.856;2023-07-02T09:47:29;21.10;68.00
31207;DHT22;17834;52.992;8.856;2023-07-02T09:49:58;20.50;66.60
31207;DHT22;17834;52.992;8.856;2023-07-02T09:52:25;20.40;68.80
31207;DHT22;17834;52.992;8.856;2023-07-02T09:54:51;20.30;68.60
31207;DHT22;17834;52.992;8.856;2023-07-02T09:57:17;20.30;66.00
31207;DHT22;17834;52.992;8.856;2023-07-02T09:59:42;20.40;66.60
31207;DHT22;17834;52.992;8.856;2023-07-02T10:02:09;20.40;67.10
31207;DHT22;17834;52.992;8.856;2023-07-02T10:04:42;20.70;67.70
31207;DHT22;17834;52.992;8.856;2023-07-02T10:07:09;20.80;67.50
31207;DHT22;17834;52.992;8.856;2023-07-02T10:12:01;20.70;67.30
31207;DHT22;17834;52.992;8.856;2023-07-02T10:14:27;20.70;68.00
31207;DHT22;17834;52.992;8.856;2023-07-02T10:16:53;20.30;66.80
31207;DHT22;17834;52.992;8.856;2023-07-02T10:19:19;20.50;67.80
31207;DHT22;17834;52.992;8.856;2023-07-02T10:21:46;20.50;66.20
31207;DHT22;17834;52.992;8.856;2023-07-02T10:24:16;20.80;67.10
31207;DHT22;17834;52.992;8.856;2023-07-02T10:26:55;20.80;65.60
31207;DHT22;17834;52.992;8.856;2023-07-02T10:29:23;20.90;65.70
31207;DHT22;17834;52.992;8.856;2023-07-02T10:31:50;21.00;66.30
31207;DHT22;17834;52.992;8.856;2023-07-02T10:34:16;21.10;68.30
31207;DHT22;17834;52.992;8.856;2023-07-02T10:36:55;21.30;69.20
31207;DHT22;17834;52.992;8.856;2023-07-02T10:39:21;21.60;69.80
31207;DHT22;17834;52.992;8.856;2023-07-02T10:41:46;22.10;70.10
31207;DHT22;17834;52.992;8.856;2023-07-02T10:44:12;22.50;68.40
31207;DHT22;17834;52.992;8.856;2023-07-02T10:46:48;22.60;65.50
31207;DHT22;17834;52.992;8.856;2023-07-02T10:49:17;22.60;63.70
31207;DHT22;17834;52.992;8.856;2023-07-02T10:51:43;22.50;60.30
31207;DHT22;17834;52.992;8.856;2023-07-02T10:54:09;22.20;63.50
31207;DHT22;17834;52.992;8.856;2023-07-02T10:56:35;22.20;64.60
31207;DHT22;17834;52.992;8.856;2023-07-02T10:59:00;22.10;65.30
31207;DHT22;17834;52.992;8.856;2023-07-02T11:01:30;22.00;65.10
31207;DHT22;17834;52.992;8.856;2023-07-02T11:04:03;21.80;64.40
31207;DHT22;17834;52.992;8.856;2023-07-02T11:06:31;21.60;64.90
31207;DHT22;17834;52.992;8.856;2023-07-02T11:08:59;21.50;65.40
31207;DHT22;17834;52.992;8.856;2023-07-02T11:11:25;21.70;65.40
31207;DHT22;17834;52.992;8.856;2023-07-02T11:13:51;21.50;66.00
31207;DHT22;17834;52.992;8.856;2023-07-02T11:16:22;21.60;64.80
31207;DHT22;17834;52.992;8.856;2023-07-02T11:18:50;21.70;65.40
31207;DHT22;17834;52.992;8.856;2023-07-02T11:21:15;21.40;62.10
31207;DHT22;17834;52.992;8.856;2023-07-02T11:23:41;21.40;64.60
31207;DHT22;17834;52.992;8.856;2023-07-02T11:26:06;21.40;64.50
31207;DHT22;17834;52.992;8.856;2023-07-02T11:28:32;21.40;62.30
31207;DHT22;17834;52.992;8.856;2023-07-02T11:31:00;21.30;64.10
31207;DHT22;17834;52.992;8.856;2023-07-02T11:33:38;21.30;62.80
31207;DHT22;17834;52.992;8.856;2023-07-02T11:36:05;21.60;62.70
31207;DHT22;17834;52.992;8.856;2023-07-02T11:38:30;22.00;63.20
31207;DHT22;17834;52.992;8.856;2023-07-02T11:40:57;22.30;62.20
31207;DHT22;17834;52.992;8.856;2023-07-02T11:43:22;22.70;61.30
31207;DHT22;17834;52.992;8.856;2023-07-02T11:45:48;22.90;60.10
31207;DHT22;17834;52.992;8.856;2023-07-02T11:48:13;22.90;62.40
31207;DHT22;17834;52.992;8.856;2023-07-02T11:50:39;22.80;60.20
31207;DHT22;17834;52.992;8.856;2023-07-02T11:53:04;22.90;59.90
31207;DHT22;17834;52.992;8.856;2023-07-02T11:55:30;22.70;58.10
31207;DHT22;17834;52.992;8.856;2023-07-02T11:57:55;22.60;59.70
31207;DHT22;17834;52.992;8.856;2023-07-02T12:00:21;22.40;59.10
31207;DHT22;17834;52.992;8.856;2023-07-02T12:02:47;22.10;59.00
31207;DHT22;17834;52.992;8.856;2023-07-02T12:05:13;22.00;60.60
31207;DHT22;17834;52.992;8.856;2023-07-02T12:07:38;21.90;62.10
31207;DHT22;17834;52.992;8.856;2023-07-02T12:10:05;21.60;62.10
31207;DHT22;17834;52.992;8.856;2023-07-02T12:12:30;21.20;62.20
31207;DHT22;17834;52.992;8.856;2023-07-02T12:14:56;21.00;62.40
31207;DHT22;17834;52.992;8.856;2023-07-02T12:17:21;21.00;64.00
31207;DHT22;17834;52.992;8.856;2023-07-02T12:19:47;21.10;64.60
31207;DHT22;17834;52.992;8.856;2023-07-02T12:22:12;21.20;63.60
31207;DHT22;17834;52.992;8.856;2023-07-02T12:24:42;21.20;64.90
31207;DHT22;17834;52.992;8.856;2023-07-02T12:27:07;21.10;64.10
31207;DHT22;17834;52.992;8.856;2023-07-02T12:29:33;20.90;63.80
31207;DHT22;17834;52.992;8.856;2023-07-02T12:31:58;20.90;64.50
31207;DHT22;17834;52.992;8.856;2023-07-02T12:34:24;20.80;64.60
31207;DHT22;17834;52.992;8.856;2023-07-02T12:36:49;20.70;65.70
31207;DHT22;17834;52.992;8.856;2023-07-02T12:39:15;20.70;63.80
31207;DHT22;17834;52.992;8.856;2023-07-02T12:41:41;21.00;63.90
31207;DHT22;17834;52.992;8.856;2023-07-02T12:44:06;21.20;63.90
31207;DHT22;17834;52.992;8.856;2023-07-02T12:46:32;21.50;63.90
31207;DHT22;17834;52.992;8.856;2023-07-02T12:48:57;21.60;63.30
31207;DHT22;17834;52.992;8.856;2023-07-02T12:51:23;21.90;63.60
31207;DHT22;17834;52.992;8.856;2023-07-02T12:53:48;22.10;62.90
31207;DHT22;17834;52.992;8.856;2023-07-02T12:56:14;22.20;62.90
31207;DHT22;17834;52.992;8.856;2023-07-02T12:58:39;21.90;62.20
31207;DHT22;17834;52.992;8.856;2023-07-02T13:01:04;21.80;63.00
31207;DHT22;17834;52.992;8.856;2023-07-02T13:03:30;21.70;65.00
31207;DHT22;17834;52.992;8.856;2023-07-02T13:05:56;21.60;64.80
31207;DHT22;17834;52.992;8.856;2023-07-02T13:08:21;21.80;64.80
31207;DHT22;17834;52.992;8.856;2023-07-02T13:10:47;21.90;65.50
31207;DHT22;17834;52.992;8.856;2023-07-02T13:13:12;22.10;66.20
31207;DHT22;17834;52.992;8.856;2023-07-02T13:15:38;22.40;62.80
31207;DHT22;17834;52.992;8.856;2023-07-02T13:18:04;22.60;62.30
31207;DHT22;17834;52.992;8.856;2023-07-02T13:20:29;22.60;60.70
31207;DHT22;17834;52.992;8.856;2023-07-02T13:22:55;22.50;61.90
31207;DHT22;17834;52.992;8.856;2023-07-02T13:25:21;22.40;61.10
31207;DHT22;17834;52.992;8.856;2023-07-02T13:27:46;22.30;59.40
31207;DHT22;17834;52.992;8.856;2023-07-02T13:30:12;22.30;61.50
31207;DHT22;17834;52.992;8.856;2023-07-02T13:32:37;22.30;61.30
31207;DHT22;17834;52.992;8.856;2023-07-02T13:35:03;22.30;61.10
31207;DHT22;17834;52.992;8.856;2023-07-02T13:37:28;22.50;60.10
31207;DHT22;17834;52.992;8.856;2023-07-02T13:39:54;22.70;59.70
31207;DHT22;17834;52.992;8.856;2023-07-02T13:42:19;22.90;61.00
31207;DHT22;17834;52.992;8.856;2023-07-02T13:44:45;22.80;59.00
31207;DHT22;17834;52.992;8.856;2023-07-02T13:47:11;22.70;59.30
31207;DHT22;17834;52.992;8.856;2023-07-02T13:49:37;22.80;58.70
31207;DHT22;17834;52.992;8.856;2023-07-02T13:52:02;22.70;58.40
31207;DHT22;17834;52.992;8.856;2023-07-02T13:54:28;22.60;58.60
31207;DHT22;17834;52.992;8.856;2023-07-02T13:56:55;22.70;59.30
31207;DHT22;17834;52.992;8.856;2023-07-02T13:59:21;22.70;59.90
31207;DHT22;17834;52.992;8.856;2023-07-02T14:01:47;22.70;60.80
31207;DHT22;17834;52.992;8.856;2023-07-02T14:04:14;22.80;61.30
31207;DHT22;17834;52.992;8.856;2023-07-02T14:06:40;22.60;61.20
31207;DHT22;17834;52.992;8.856;2023-07-02T14:09:06;22.60;60.70
31207;DHT22;17834;52.992;8.856;2023-07-02T14:11:33;22.50;61.00
31207;DHT22;17834;52.992;8.856;2023-07-02T14:13:59;22.50;61.60
31207;DHT22;17834;52.992;8.856;2023-07-02T14:16:25;22.50;62.90
31207;DHT22;17834;52.992;8.856;2023-07-02T14:18:51;22.40;61.10
31207;DHT22;17834;52.992;8.856;2023-07-02T14:21:16;22.30;62.20
31207;DHT22;17834;52.992;8.856;2023-07-02T14:23:43;22.40;61.70
31207;DHT22;17834;52.992;8.856;2023-07-02T14:26:09;22.40;61.70
31207;DHT22;17834;52.992;8.856;2023-07-02T14:28:34;22.70;62.00
31207;DHT22;17834;52.992;8.856;2023-07-02T14:31:01;22.60;61.40
31207;DHT22;17834;52.992;8.856;2023-07-02T14:33:28;22.70;60.00
31207;DHT22;17834;52.992;8.856;2023-07-02T14:35:54;22.60;59.80
31207;DHT22;17834;52.992;8.856;2023-07-02T14:38:20;22.90;61.70
31207;DHT22;17834;52.992;8.856;2023-07-02T14:40:48;23.10;62.20
31207;DHT22;17834;52.992;8.856;2023-07-02T14:43:13;23.30;62.20
31207;DHT22;17834;52.992;8.856;2023-07-02T14:45:50;23.40;61.90
31207;DHT22;17834;52.992;8.856;2023-07-02T14:48:16;23.20;61.20
31207;DHT22;17834;52.992;8.856;2023-07-02T14:50:48;23.10;62.30
31207;DHT22;17834;52.992;8.856;2023-07-02T14:53:14;22.90;60.40
31207;DHT22;17834;52.992;8.856;2023-07-02T14:55:40;22.90;61.00
31207;DHT22;17834;52.992;8.856;2023-07-02T14:58:06;22.70;60.50
31207;DHT22;17834;52.992;8.856;2023-07-02T15:00:32;22.50;60.00
31207;DHT22;17834;52.992;8.856;2023-07-02T15:02:58;22.50;60.60
31207;DHT22;17834;52.992;8.856;2023-07-02T15:05:24;22.60;61.30
31207;DHT22;17834;52.992;8.856;2023-07-02T15:07:49;22.50;60.70
31207;DHT22;17834;52.992;8.856;2023-07-02T15:10:17;22.60;59.90
31207;DHT22;17834;52.992;8.856;2023-07-02T15:12:42;22.40;59.60
31207;DHT22;17834;52.992;8.856;2023-07-02T15:15:08;22.50;60.20
31207;DHT22;17834;52.992;8.856;2023-07-02T15:17:34;22.40;59.50
31207;DHT22;17834;52.992;8.856;2023-07-02T15:20:00;22.40;59.10
31207;DHT22;17834;52.992;8.856;2023-07-02T15:22:26;22.30;59.30
31207;DHT22;17834;52.992;8.856;2023-07-02T15:24:51;22.30;60.00
31207;DHT22;17834;52.992;8.856;2023-07-02T15:27:17;22.40;59.60
31207;DHT22;17834;52.992;8.856;2023-07-02T15:29:42;22.50;60.30